createdAt,value
2019-02-06T00:00:43.275Z,26.23
2019-02-06T00:01:35.254Z,29.90
2019-02-06T00:02:11.825Z,33.05
2019-02-06T00:02:44.348Z,30.02
2019-02-06T00:03:20.285Z,30.08
2019-02-06T00:03:52.721Z,26.15
2019-02-06T00:04:25.214Z,26.85
2019-02-06T00:04:57.685Z,26.73
2019-02-06T00:05:30.279Z,28.07
2019-02-06T00:06:03.472Z,29.23
2019-02-06T00:06:36.028Z,26.23
2019-02-06T00:07:08.541Z,30.45
2019-02-06T00:07:41.480Z,29.40
2019-02-06T00:08:13.993Z,34.35
2019-02-06T00:08:46.467Z,32.60
2019-02-06T00:09:19.146Z,32.58
2019-02-06T00:09:51.624Z,27.17
2019-02-06T00:10:24.792Z,27.45
2019-02-06T00:10:57.267Z,29.18
2019-02-06T00:11:29.770Z,32.13
2019-02-06T00:12:02.255Z,33.28
2019-02-06T00:12:34.736Z,31.17
2019-02-06T00:13:07.242Z,32.80
2019-02-06T00:13:39.755Z,27.85
2019-02-06T00:14:12.205Z,27.35
2019-02-06T00:14:45.263Z,28.60
2019-02-06T00:15:18.146Z,37.15
2019-02-06T00:15:50.618Z,27.77
2019-02-06T00:16:23.140Z,30.12
2019-02-06T00:16:55.574Z,30.70
2019-02-06T00:17:28.055Z,25.37
2019-02-06T00:18:00.536Z,28.55
2019-02-06T00:18:33.321Z,29.05
2019-02-06T00:19:05.817Z,32.55
2019-02-06T00:19:38.279Z,25.35
2019-02-06T00:20:11.031Z,28.00
2019-02-06T00:20:43.511Z,26.25
2019-02-06T00:21:15.983Z,24.63
2019-02-06T00:21:48.482Z,29.55
2019-02-06T00:22:20.958Z,26.17
2019-02-06T00:22:53.439Z,27.25
2019-02-06T00:23:26.364Z,31.07
2019-02-06T00:23:59.116Z,28.25
2019-02-06T00:24:31.616Z,33.95
2019-02-06T00:25:05.130Z,27.50
2019-02-06T00:25:37.629Z,29.57
2019-02-06T00:26:10.112Z,31.07
2019-02-06T00:26:42.596Z,30.10
2019-02-06T00:27:15.082Z,26.87
2019-02-06T00:27:47.897Z,25.45
2019-02-06T00:28:20.502Z,30.88
2019-02-06T00:28:53.567Z,30.62
2019-02-06T00:29:26.153Z,33.53
2019-02-06T00:29:58.671Z,29.87
2019-02-06T00:30:31.154Z,30.85
2019-02-06T00:31:03.908Z,36.53
2019-02-06T00:31:36.441Z,28.20
2019-02-06T00:32:09.223Z,33.02
2019-02-06T00:32:42.060Z,30.88
2019-02-06T00:33:14.546Z,25.35
2019-02-06T00:33:47.367Z,30.37
2019-02-06T00:34:20.119Z,25.75
2019-02-06T00:34:52.888Z,28.02
2019-02-06T00:35:26.202Z,33.80
2019-02-06T00:35:58.881Z,26.33
2019-02-06T00:36:31.364Z,29.72
2019-02-06T00:37:04.302Z,29.18
2019-02-06T00:37:36.832Z,27.73
2019-02-06T00:38:09.302Z,31.07
2019-02-06T00:38:42.163Z,33.08
2019-02-06T00:39:14.854Z,31.95
2019-02-06T00:39:47.460Z,29.07
2019-02-06T00:40:20.234Z,36.75
2019-02-06T00:40:52.750Z,29.95
2019-02-06T00:41:25.244Z,29.20
2019-02-06T00:41:57.730Z,27.77
2019-02-06T00:42:30.219Z,27.40
2019-02-06T00:43:02.832Z,29.95
2019-02-06T00:43:35.644Z,31.05
2019-02-06T00:44:08.123Z,31.42
2019-02-06T00:44:40.602Z,27.98
2019-02-06T00:45:13.880Z,28.40
2019-02-06T00:45:46.641Z,26.42
2019-02-06T00:46:19.147Z,24.32
2019-02-06T00:46:51.759Z,29.75
2019-02-06T00:47:24.252Z,28.65
2019-02-06T00:47:56.746Z,27.80
2019-02-06T00:48:29.197Z,25.20
2019-02-06T00:49:01.654Z,35.35
2019-02-06T00:49:34.461Z,29.65
2019-02-06T00:50:08.211Z,28.40
2019-02-06T00:50:41.279Z,28.40
2019-02-06T00:51:13.750Z,33.88
2019-02-06T00:51:46.256Z,25.15
2019-02-06T00:52:19.101Z,26.37
2019-02-06T00:52:51.574Z,29.70
2019-02-06T00:53:24.056Z,30.12
2019-02-06T00:53:56.831Z,29.35
2019-02-06T00:54:29.297Z,31.30
2019-02-06T00:55:02.138Z,26.97
2019-02-06T00:55:34.611Z,25.30
2019-02-06T00:56:07.078Z,26.00
2019-02-06T00:56:40.257Z,27.10
2019-02-06T00:57:13.052Z,27.62
2019-02-06T00:57:45.526Z,27.35
2019-02-06T00:58:18.293Z,29.98
2019-02-06T00:58:51.030Z,27.77
2019-02-06T00:59:23.626Z,25.92
2019-02-06T00:59:58.372Z,32.63
2019-02-06T01:00:30.691Z,28.85
2019-02-06T01:01:04.951Z,28.87
2019-02-06T01:01:37.577Z,30.15
2019-02-06T01:02:10.334Z,30.43
2019-02-06T01:02:42.826Z,32.00
2019-02-06T01:03:15.298Z,27.77
2019-02-06T01:03:47.891Z,38.20
2019-02-06T01:04:20.358Z,32.73
2019-02-06T01:04:53.106Z,30.60
2019-02-06T01:05:37.556Z,30.70
2019-02-06T01:05:59.867Z,28.98
2019-02-06T01:06:32.694Z,28.87
2019-02-06T01:07:05.255Z,28.52
2019-02-06T01:07:38.160Z,26.87
2019-02-06T01:08:10.664Z,28.65
2019-02-06T01:08:43.355Z,29.07
2019-02-06T01:09:15.814Z,23.35
2019-02-06T01:09:48.300Z,25.57
2019-02-06T01:10:21.165Z,25.57
2019-02-06T01:10:54.040Z,28.20
2019-02-06T01:11:26.810Z,22.00
2019-02-06T01:11:59.283Z,26.40
2019-02-06T01:12:32.066Z,26.77
2019-02-06T01:13:04.563Z,30.70
2019-02-06T01:13:37.307Z,27.65
2019-02-06T01:14:10.230Z,29.23
2019-02-06T01:14:42.712Z,28.15
2019-02-06T01:15:15.206Z,28.23
2019-02-06T01:15:47.674Z,30.30
2019-02-06T01:16:20.158Z,27.58
2019-02-06T01:16:52.636Z,25.77
2019-02-06T01:17:25.944Z,27.37
2019-02-06T01:17:58.607Z,29.95
2019-02-06T01:18:31.092Z,24.25
2019-02-06T01:19:04.100Z,27.85
2019-02-06T01:19:36.903Z,30.43
2019-02-06T01:20:11.538Z,30.60
2019-02-06T01:20:44.378Z,27.48
2019-02-06T01:21:17.249Z,30.92
2019-02-06T01:21:49.903Z,37.45
2019-02-06T01:22:22.686Z,25.90
2019-02-06T01:22:55.827Z,31.17
2019-02-06T01:23:28.613Z,27.02
2019-02-06T01:24:01.102Z,27.52
2019-02-06T01:24:33.632Z,25.02
2019-02-06T01:25:07.946Z,32.60
2019-02-06T01:25:40.423Z,31.95
2019-02-06T01:26:12.897Z,27.70
2019-02-06T01:26:45.377Z,27.90
2019-02-06T01:27:17.851Z,30.82
2019-02-06T01:27:50.339Z,32.10
2019-02-06T01:28:22.839Z,29.02
2019-02-06T01:28:55.574Z,23.62
2019-02-06T01:29:28.063Z,25.95
2019-02-06T01:30:00.682Z,24.72
2019-02-06T01:30:55.814Z,33.13
2019-02-06T01:31:29.383Z,30.20
2019-02-06T01:32:02.250Z,31.02
2019-02-06T01:32:35.163Z,28.23
2019-02-06T01:33:07.911Z,32.88
2019-02-06T01:33:40.380Z,28.10
2019-02-06T01:34:12.888Z,28.35
2019-02-06T01:34:45.649Z,25.80
2019-02-06T01:35:18.430Z,25.08
2019-02-06T01:35:50.911Z,27.58
2019-02-06T01:36:23.370Z,28.35
2019-02-06T01:36:55.863Z,26.27
2019-02-06T01:37:28.352Z,25.00
2019-02-06T01:38:00.839Z,25.88
2019-02-06T01:38:33.460Z,28.35
2019-02-06T01:39:10.557Z,28.67
2019-02-06T01:39:43.046Z,30.60
2019-02-06T01:40:17.000Z,31.02
2019-02-06T01:40:49.530Z,27.70
2019-02-06T01:41:22.427Z,28.07
2019-02-06T01:41:54.916Z,24.55
2019-02-06T01:42:27.671Z,31.68
2019-02-06T01:43:00.164Z,28.20
2019-02-06T01:43:32.635Z,28.70
2019-02-06T01:44:05.509Z,27.02
2019-02-06T01:44:37.994Z,33.67
2019-02-06T01:45:11.687Z,27.35
2019-02-06T01:45:44.146Z,27.15
2019-02-06T01:46:17.003Z,31.40
2019-02-06T01:46:49.875Z,29.20
2019-02-06T01:47:22.360Z,36.23
2019-02-06T01:47:54.827Z,31.35
2019-02-06T01:48:27.297Z,31.60
2019-02-06T01:48:59.779Z,28.90
2019-02-06T01:49:32.532Z,25.52
2019-02-06T01:50:06.785Z,26.75
2019-02-06T01:50:39.472Z,26.35
2019-02-06T01:51:12.225Z,31.50
2019-02-06T01:51:45.408Z,29.77
2019-02-06T01:52:18.162Z,25.72
2019-02-06T01:52:50.647Z,25.75
2019-02-06T01:53:23.116Z,28.38
2019-02-06T01:53:55.594Z,30.88
2019-02-06T01:54:28.084Z,29.65
2019-02-06T01:55:00.564Z,28.95
2019-02-06T01:55:33.317Z,38.55
2019-02-06T01:56:06.055Z,29.72
2019-02-06T01:56:38.528Z,33.65
2019-02-06T01:57:11.035Z,26.02
2019-02-06T01:57:43.490Z,28.32
2019-02-06T01:58:16.255Z,23.62
2019-02-06T01:58:49.163Z,28.70
2019-02-06T01:59:21.992Z,28.75
2019-02-06T01:59:54.771Z,28.75
2019-02-06T02:00:27.254Z,27.85
2019-02-06T02:01:00.324Z,29.42
2019-02-06T02:01:32.894Z,30.90
2019-02-06T02:02:05.471Z,29.02
2019-02-06T02:02:37.984Z,29.72
2019-02-06T02:03:10.450Z,25.02
2019-02-06T02:03:43.387Z,30.77
2019-02-06T02:04:15.872Z,30.02
2019-02-06T02:04:49.019Z,27.45
2019-02-06T02:05:21.674Z,26.90
2019-02-06T02:06:01.698Z,30.23
2019-02-06T02:06:28.437Z,29.07
2019-02-06T02:07:01.263Z,24.90
2019-02-06T02:07:34.104Z,27.58
2019-02-06T02:08:06.904Z,25.90
2019-02-06T02:08:45.166Z,43.08
2019-02-06T02:09:20.501Z,32.17
2019-02-06T02:09:53.260Z,31.52
2019-02-06T02:10:25.847Z,27.73
2019-02-06T02:10:58.310Z,28.67
2019-02-06T02:11:31.071Z,28.27
2019-02-06T02:12:04.447Z,30.25
2019-02-06T02:12:36.919Z,29.57
2019-02-06T02:13:10.107Z,32.00
2019-02-06T02:35:42.509Z,26.17
2019-02-06T02:36:16.539Z,24.20
2019-02-06T02:36:49.577Z,28.12
2019-02-06T02:37:22.057Z,29.32
2019-02-06T02:37:54.531Z,30.32
2019-02-06T02:38:26.993Z,25.95
2019-02-06T02:38:59.474Z,31.40
2019-02-06T02:39:32.229Z,28.77
2019-02-06T02:40:06.004Z,27.52
2019-02-06T02:40:38.874Z,25.37
2019-02-06T02:41:11.774Z,28.95
2019-02-06T02:41:44.257Z,27.37
2019-02-06T02:42:16.724Z,28.45
2019-02-06T02:42:49.201Z,25.27
2019-02-06T02:43:21.955Z,30.68
2019-02-06T02:43:55.339Z,28.67
2019-02-06T02:44:27.817Z,22.87
2019-02-06T02:45:00.308Z,31.33
2019-02-06T02:45:33.046Z,26.33
2019-02-06T02:46:05.796Z,29.15
2019-02-06T02:46:38.716Z,31.12
2019-02-06T02:47:11.182Z,26.07
2019-02-06T02:47:43.952Z,29.15
2019-02-06T02:48:16.820Z,28.17
2019-02-06T03:29:50.438Z,22.30
2019-02-06T03:30:22.921Z,22.82
2019-02-06T03:30:55.681Z,28.70
2019-02-06T03:31:28.429Z,25.55
2019-02-06T03:32:01.279Z,21.62
2019-02-06T03:32:33.765Z,23.22
2019-02-06T03:33:06.336Z,25.45
2019-02-06T03:33:39.121Z,25.32
2019-02-06T03:34:12.158Z,24.20
2019-02-06T03:34:45.415Z,22.90
2019-02-06T03:35:18.186Z,27.58
2019-02-06T03:35:51.066Z,28.90
2019-02-06T03:36:23.937Z,23.65
2019-02-06T03:36:56.857Z,22.90
2019-02-06T03:37:29.309Z,29.37
2019-02-06T03:38:01.778Z,21.17
2019-02-06T03:38:34.251Z,23.83
2019-02-06T03:39:08.293Z,24.70
2019-02-06T03:39:40.761Z,20.75
2019-02-06T03:40:14.270Z,27.27
2019-02-06T03:40:46.762Z,24.60
2019-02-06T03:41:19.228Z,25.43
2019-02-06T03:41:51.711Z,24.12
2019-02-06T03:42:24.384Z,23.95
2019-02-06T03:42:56.860Z,21.02
2019-02-06T03:43:29.355Z,25.90
2019-02-06T03:44:01.848Z,21.68
2019-02-06T03:44:34.668Z,22.87
2019-02-06T03:45:08.371Z,23.80
2019-02-06T03:45:41.477Z,28.20
2019-02-06T03:46:14.224Z,22.37
2019-02-06T03:46:47.100Z,25.23
2019-02-06T03:47:19.702Z,25.32
2019-02-06T03:47:52.174Z,24.27
2019-02-06T03:48:24.633Z,22.10
2019-02-06T03:48:57.414Z,25.95
2019-02-06T03:49:30.189Z,28.17
2019-02-06T03:50:03.262Z,21.57
2019-02-06T03:50:35.847Z,21.45
2019-02-06T03:51:08.689Z,23.42
2019-02-06T03:51:41.193Z,24.72
2019-02-06T03:52:13.683Z,25.62
2019-02-06T03:52:46.166Z,26.40
2019-02-06T03:53:18.647Z,23.15
2019-02-06T03:53:51.621Z,26.00
2019-02-06T03:54:24.119Z,26.20
2019-02-06T03:54:56.884Z,23.60
2019-02-06T03:55:29.373Z,23.77
2019-02-06T03:56:02.248Z,22.13
2019-02-06T03:56:35.048Z,23.67
2019-02-06T03:57:08.100Z,22.15
2019-02-06T03:57:40.571Z,20.68
2019-02-06T03:58:13.052Z,26.52
2019-02-06T03:58:45.525Z,21.55
2019-02-06T03:59:17.986Z,23.07
2019-02-06T03:59:50.479Z,27.42
2019-02-06T04:00:22.966Z,21.70
2019-02-06T04:00:55.423Z,21.37
2019-02-06T04:01:28.302Z,21.90
2019-02-06T04:02:01.188Z,19.15
2019-02-06T04:02:33.658Z,30.20
2019-02-06T04:03:06.406Z,22.62
2019-02-06T04:03:38.883Z,27.42
2019-02-06T04:04:11.346Z,22.55
2019-02-06T04:04:43.827Z,23.35
2019-02-06T04:05:16.507Z,25.62
2019-02-06T04:05:48.999Z,21.57
2019-02-06T04:06:21.861Z,21.42
2019-02-06T04:07:00.969Z,19.52
2019-02-06T04:07:29.208Z,26.77
2019-02-06T04:08:01.691Z,19.92
2019-02-06T04:08:34.166Z,21.48
2019-02-06T04:09:08.178Z,24.92
2019-02-06T04:09:40.660Z,23.22
2019-02-06T04:10:13.879Z,20.65
2019-02-06T04:10:46.370Z,20.68
2019-02-06T04:11:18.856Z,26.65
2019-02-06T04:11:51.327Z,20.50
2019-02-06T04:12:24.083Z,23.67
2019-02-06T04:12:56.572Z,23.05
2019-02-06T04:13:29.065Z,20.85
2019-02-06T04:14:01.798Z,30.02
2019-02-06T04:14:34.301Z,23.52
2019-02-06T04:15:07.586Z,24.90
2019-02-06T04:15:40.181Z,19.23
2019-02-06T04:16:12.892Z,21.23
2019-02-06T04:16:45.774Z,25.23
2019-02-06T04:17:18.252Z,21.87
2019-02-06T04:17:54.365Z,22.50
2019-02-06T04:18:25.338Z,19.80
2019-02-06T04:18:57.811Z,19.37
2019-02-06T04:19:30.291Z,24.07
2019-02-06T04:20:03.365Z,18.67
2019-02-06T04:20:36.417Z,25.43
2019-02-06T04:21:08.885Z,26.85
2019-02-06T04:21:41.380Z,23.65
2019-02-06T04:22:13.848Z,22.52
2019-02-06T04:22:46.323Z,23.05
2019-02-06T04:23:18.781Z,18.67
2019-02-06T04:23:51.607Z,20.80
2019-02-06T04:24:24.093Z,27.35
2019-02-06T04:24:56.554Z,24.05
2019-02-06T04:25:29.044Z,22.80
2019-02-06T04:26:02.048Z,20.43
2019-02-06T04:26:34.457Z,21.40
2019-02-06T04:27:07.618Z,22.73
2019-02-06T04:27:40.085Z,23.95
2019-02-06T04:28:13.110Z,22.65
2019-02-06T04:28:46.245Z,20.10
2019-02-06T04:29:18.744Z,24.05
2019-02-06T04:29:51.234Z,23.02
2019-02-06T04:30:23.719Z,20.02
2019-02-06T04:30:56.464Z,27.07
2019-02-06T04:31:28.935Z,19.67
2019-02-06T04:32:01.743Z,22.62
2019-02-06T04:32:34.224Z,21.68
2019-02-06T04:33:06.990Z,24.23
2019-02-06T04:33:39.837Z,21.10
2019-02-06T04:34:12.294Z,24.57
2019-02-06T04:34:44.816Z,24.20
2019-02-06T04:35:17.297Z,21.70
2019-02-06T04:35:49.798Z,24.20
2019-02-06T04:36:22.628Z,21.85
2019-02-06T04:37:06.362Z,22.82
2019-02-06T04:37:29.693Z,26.27
2019-02-06T04:38:02.275Z,24.12
2019-02-06T04:38:34.949Z,22.13
2019-02-06T04:39:07.791Z,20.62
2019-02-06T04:39:40.595Z,24.43
2019-02-06T04:40:16.120Z,22.67
2019-02-06T04:40:48.881Z,25.57
2019-02-06T04:41:21.380Z,20.50
2019-02-06T04:41:53.953Z,23.80
2019-02-06T04:42:26.431Z,26.15
2019-02-06T04:42:59.258Z,22.58
2019-02-06T04:43:32.060Z,21.73
2019-02-06T04:44:04.830Z,19.87
2019-02-06T04:44:37.315Z,23.62
2019-02-06T04:45:10.392Z,24.05
2019-02-06T04:45:43.188Z,24.00
2019-02-06T04:46:15.664Z,24.30
2019-02-06T04:46:48.614Z,23.95
2019-02-06T04:47:21.920Z,23.20
2019-02-06T04:47:54.695Z,26.65
2019-02-06T04:48:27.170Z,21.73
2019-02-06T04:48:59.846Z,20.92
2019-02-06T04:49:32.323Z,21.30
2019-02-06T04:50:06.343Z,21.20
2019-02-06T04:50:39.142Z,23.92
2019-02-06T04:51:11.960Z,26.93
2019-02-06T04:51:44.705Z,20.88
2019-02-06T04:52:17.188Z,21.87
2019-02-06T04:52:49.670Z,24.02
2019-02-06T04:53:22.170Z,20.45
2019-02-06T04:53:54.946Z,22.37
2019-02-06T04:54:27.550Z,22.40
2019-02-06T04:55:00.648Z,24.80
2019-02-06T04:55:33.115Z,24.55
2019-02-06T04:56:05.597Z,24.65
2019-02-06T04:56:38.101Z,24.23
2019-02-06T04:57:10.626Z,26.52
2019-02-06T04:57:43.092Z,21.60
2019-02-06T04:58:21.863Z,21.02
2019-02-06T04:58:54.623Z,20.15
2019-02-06T04:59:27.754Z,23.00
2019-02-06T05:00:00.346Z,26.52
2019-02-06T05:00:33.107Z,20.97
2019-02-06T05:01:05.566Z,24.00
2019-02-06T05:01:38.735Z,26.17
2019-02-06T05:02:11.631Z,24.05
2019-02-06T05:02:44.536Z,18.05
2019-02-06T05:03:17.026Z,25.80
2019-02-06T05:03:49.504Z,20.40
2019-02-06T05:04:22.015Z,22.67
2019-02-06T05:04:54.846Z,23.30
2019-02-06T05:05:27.657Z,25.43
2019-02-06T05:06:00.494Z,24.55
2019-02-06T05:06:32.972Z,25.52
2019-02-06T05:07:18.293Z,24.98
2019-02-06T05:07:40.490Z,18.80
2019-02-06T05:08:13.083Z,21.97
2019-02-06T05:08:45.840Z,19.40
2019-02-06T05:09:18.318Z,22.17
2019-02-06T05:09:50.804Z,22.98
2019-02-06T05:10:23.280Z,24.43
2019-02-06T05:10:55.749Z,30.95
2019-02-06T05:11:28.537Z,25.23
2019-02-06T05:12:01.625Z,20.55
2019-02-06T05:12:34.310Z,22.50
2019-02-06T05:13:07.425Z,23.52
2019-02-06T05:13:39.895Z,24.25
2019-02-06T05:14:12.380Z,23.87
2019-02-06T05:14:45.498Z,22.65
2019-02-06T05:15:18.539Z,23.32
2019-02-06T05:15:51.294Z,24.55
2019-02-06T05:16:24.106Z,24.23
2019-02-06T05:16:56.894Z,22.90
2019-02-06T05:17:29.934Z,24.92
2019-02-06T05:18:02.683Z,25.20
2019-02-06T05:18:35.560Z,24.15
2019-02-06T05:19:08.171Z,22.07
2019-02-06T05:19:40.658Z,23.75
2019-02-06T05:20:33.518Z,24.57
2019-02-06T05:21:06.436Z,25.12
2019-02-06T05:21:38.955Z,24.80
2019-02-06T05:22:11.603Z,20.88
2019-02-06T05:22:44.458Z,21.85
2019-02-06T05:23:16.973Z,20.32
2019-02-06T05:23:49.757Z,21.50
2019-02-06T05:24:22.591Z,21.23
2019-02-06T05:24:55.148Z,23.38
2019-02-06T05:25:28.128Z,24.07
2019-02-06T05:26:00.597Z,28.62
2019-02-06T05:26:33.077Z,23.77
2019-02-06T05:27:05.562Z,23.02
2019-02-06T05:27:38.033Z,21.12
2019-02-06T05:28:10.620Z,24.67
2019-02-06T05:28:43.102Z,25.30
2019-02-06T05:29:16.575Z,23.70
2019-02-06T05:29:49.058Z,24.35
2019-02-06T05:30:21.839Z,24.00
2019-02-06T05:30:54.294Z,23.00
2019-02-06T05:31:27.052Z,24.55
2019-02-06T05:31:59.811Z,24.27
2019-02-06T05:32:32.919Z,22.10
2019-02-06T05:33:05.667Z,21.15
2019-02-06T05:33:38.136Z,21.57
2019-02-06T05:34:10.968Z,23.98
2019-02-06T05:34:43.479Z,23.92
2019-02-06T05:35:15.945Z,25.75
2019-02-06T05:35:48.431Z,24.27
2019-02-06T05:36:20.912Z,23.42
2019-02-06T05:36:53.676Z,22.45
2019-02-06T05:37:32.251Z,23.87
2019-02-06T05:38:00.722Z,23.57
2019-02-06T05:38:33.616Z,23.62
2019-02-06T05:39:07.486Z,22.50
2019-02-06T05:39:40.459Z,23.32
2019-02-06T05:40:12.967Z,23.05
2019-02-06T05:40:46.210Z,24.90
2019-02-06T05:41:18.682Z,28.90
2019-02-06T05:41:51.449Z,24.00
2019-02-06T05:42:23.987Z,28.07
2019-02-06T05:42:56.502Z,21.82
2019-02-06T05:43:29.281Z,25.37
2019-02-06T05:44:01.783Z,24.20
2019-02-06T05:44:34.250Z,23.40
2019-02-06T05:45:06.930Z,21.62
2019-02-06T05:45:39.733Z,25.80
2019-02-06T05:46:12.208Z,26.60
2019-02-06T05:46:44.695Z,24.87
2019-02-06T05:47:17.466Z,23.75
2019-02-06T05:47:49.964Z,21.40
2019-02-06T05:48:22.470Z,21.02
2019-02-06T05:48:55.249Z,25.35
2019-02-06T05:49:28.095Z,22.35
2019-02-06T05:50:01.292Z,21.97
2019-02-06T05:50:33.763Z,23.90
2019-02-06T05:51:06.266Z,27.05
2019-02-06T05:51:38.733Z,25.32
2019-02-06T05:52:11.194Z,24.47
2019-02-06T05:52:43.779Z,23.07
2019-02-06T05:53:16.300Z,23.22
2019-02-06T05:53:49.370Z,25.10
2019-02-06T05:54:21.840Z,24.57
2019-02-06T05:54:54.928Z,24.32
2019-02-06T05:55:27.386Z,23.18
2019-02-06T05:56:00.691Z,22.02
2019-02-06T05:56:33.884Z,26.37
2019-02-06T05:57:06.363Z,24.50
2019-02-06T05:57:39.117Z,24.32
2019-02-06T05:58:11.968Z,23.95
2019-02-06T05:58:44.734Z,23.83
2019-02-06T05:59:17.501Z,26.68
2019-02-06T05:59:50.243Z,23.80
2019-02-06T06:00:37.590Z,25.97
2019-02-06T06:01:10.444Z,21.07
2019-02-06T06:01:43.234Z,23.05
2019-02-06T06:02:15.721Z,24.65
2019-02-06T06:02:48.408Z,24.40
2019-02-06T06:03:20.878Z,21.35
2019-02-06T06:03:53.781Z,26.57
2019-02-06T06:04:26.265Z,28.35
2019-02-06T06:04:58.881Z,29.45
2019-02-06T06:05:31.346Z,20.60
2019-02-06T06:06:04.132Z,28.40
2019-02-06T06:06:36.883Z,26.60
2019-02-06T06:07:09.387Z,25.02
2019-02-06T06:07:45.364Z,24.50
2019-02-06T06:08:16.145Z,26.97
2019-02-06T06:08:48.636Z,31.27
2019-02-06T06:09:21.106Z,21.35
2019-02-06T06:09:53.567Z,26.87
2019-02-06T06:10:26.456Z,25.52
2019-02-06T06:10:58.936Z,23.32
2019-02-06T06:11:31.421Z,24.67
2019-02-06T06:12:03.889Z,20.95
2019-02-06T06:12:36.671Z,25.37
2019-02-06T06:13:09.627Z,24.18
2019-02-06T06:13:42.109Z,25.05
2019-02-06T06:14:15.549Z,30.40
2019-02-06T06:14:48.286Z,18.90
2019-02-06T06:15:21.610Z,25.68
2019-02-06T06:15:54.338Z,29.27
2019-02-06T06:16:27.151Z,24.72
2019-02-06T06:16:59.647Z,23.52
2019-02-06T06:17:32.119Z,23.18
2019-02-06T06:18:04.646Z,23.27
2019-02-06T06:18:37.136Z,29.55
2019-02-06T06:19:09.616Z,21.90
2019-02-06T06:19:42.401Z,24.00
2019-02-06T06:20:15.909Z,21.70
2019-02-06T06:20:48.406Z,22.20
2019-02-06T06:21:21.255Z,22.60
2019-02-06T06:21:54.124Z,20.88
2019-02-06T06:22:26.967Z,21.97
2019-02-06T06:22:59.438Z,25.45
2019-02-06T06:23:32.696Z,23.75
2019-02-06T06:24:05.172Z,23.42
2019-02-06T06:24:38.341Z,21.68
2019-02-06T06:25:12.677Z,23.12
2019-02-06T06:25:45.496Z,24.12
2019-02-06T06:26:17.970Z,23.45
2019-02-06T06:26:50.795Z,19.85
2019-02-06T06:27:23.716Z,23.07
2019-02-06T06:27:56.180Z,24.92
2019-02-06T06:28:28.776Z,25.45
2019-02-06T06:29:01.594Z,23.05
2019-02-06T06:29:45.813Z,24.80
2019-02-06T06:30:25.322Z,23.02
2019-02-06T06:31:00.155Z,22.60
2019-02-06T06:31:36.880Z,26.33
2019-02-06T06:32:10.525Z,24.10
2019-02-06T06:32:43.437Z,23.42
2019-02-06T06:33:16.058Z,23.18
2019-02-06T06:33:48.903Z,21.05
2019-02-06T06:34:21.756Z,33.20
2019-02-06T06:34:54.283Z,22.37
2019-02-06T06:35:27.141Z,27.75
2019-02-06T06:35:59.763Z,28.30
2019-02-06T06:36:32.223Z,26.55
2019-02-06T06:37:05.548Z,27.42
2019-02-06T06:37:41.392Z,29.20
2019-02-06T06:38:12.911Z,24.92
2019-02-06T06:38:45.706Z,23.02
2019-02-06T06:39:18.591Z,29.25
2019-02-06T06:39:51.091Z,26.40
2019-02-06T06:40:23.578Z,23.00
2019-02-06T06:40:56.981Z,28.00
2019-02-06T06:41:29.837Z,26.75
2019-02-06T06:42:02.346Z,25.57
2019-02-06T06:42:34.852Z,22.65
2019-02-06T06:43:07.637Z,27.62
2019-02-06T06:43:40.500Z,23.00
2019-02-06T06:44:12.984Z,20.70
2019-02-06T06:44:45.469Z,22.05
2019-02-06T06:45:20.310Z,21.45
2019-02-06T06:45:52.804Z,25.35
2019-02-06T06:46:25.305Z,24.82
2019-02-06T06:46:57.817Z,23.57
2019-02-06T06:47:30.304Z,23.12
2019-02-06T06:48:02.882Z,27.15
2019-02-06T06:48:35.725Z,28.42
2019-02-06T06:49:08.207Z,32.17
2019-02-06T06:49:40.684Z,26.40
2019-02-06T06:50:15.377Z,30.77
2019-02-06T06:50:47.900Z,29.67
2019-02-06T06:51:20.369Z,25.60
2019-02-06T06:51:53.822Z,30.23
2019-02-06T06:52:26.282Z,28.65
2019-02-06T06:52:58.759Z,27.05
2019-02-06T06:53:32.423Z,29.82
2019-02-06T06:54:04.898Z,26.42
2019-02-06T06:54:38.017Z,28.47
2019-02-06T06:55:11.206Z,25.08
2019-02-06T06:55:44.004Z,26.62
2019-02-06T06:56:17.307Z,25.57
2019-02-06T06:56:49.807Z,29.12
2019-02-06T06:57:22.266Z,26.95
2019-02-06T06:57:55.050Z,27.90
2019-02-06T06:58:27.498Z,29.60
2019-02-06T06:59:00.322Z,32.78
2019-02-06T06:59:33.097Z,27.95
2019-02-06T07:00:08.580Z,33.73
2019-02-06T07:00:41.054Z,26.62
2019-02-06T07:01:13.802Z,25.80
2019-02-06T07:01:46.604Z,30.85
2019-02-06T07:02:19.380Z,27.27
2019-02-06T07:02:52.200Z,28.90
2019-02-06T07:03:24.954Z,26.23
2019-02-06T07:03:57.822Z,30.57
2019-02-06T07:04:30.304Z,32.80
2019-02-06T07:05:05.649Z,31.20
2019-02-06T07:05:37.292Z,25.97
2019-02-06T07:06:10.174Z,32.55
2019-02-06T07:06:42.659Z,25.77
2019-02-06T07:07:15.453Z,29.42
2019-02-06T07:07:48.248Z,30.02
2019-02-06T07:08:21.112Z,26.90
2019-02-06T07:08:53.690Z,34.33
2019-02-06T07:09:26.175Z,29.27
2019-02-06T07:09:58.927Z,30.72
2019-02-06T07:10:31.534Z,32.17
2019-02-06T07:11:04.130Z,31.05
2019-02-06T07:11:36.612Z,32.30
2019-02-06T07:12:09.090Z,28.73
2019-02-06T07:12:41.615Z,30.02
2019-02-06T07:13:14.094Z,30.32
2019-02-06T07:13:46.580Z,28.60
2019-02-06T07:14:19.062Z,33.90
2019-02-06T07:14:51.890Z,27.62
2019-02-06T07:15:27.524Z,25.82
2019-02-06T07:16:00.506Z,34.25
2019-02-06T07:16:33.332Z,25.40
2019-02-06T07:17:05.958Z,29.67
2019-02-06T07:17:38.928Z,31.23
2019-02-06T07:18:11.855Z,26.62
2019-02-06T07:18:44.637Z,31.65
2019-02-06T07:19:17.486Z,31.07
2019-02-06T07:19:49.955Z,30.80
2019-02-06T07:20:22.452Z,31.25
2019-02-06T07:20:54.936Z,34.43
2019-02-06T07:21:28.264Z,31.35
2019-02-06T07:22:01.023Z,32.73
2019-02-06T07:22:33.517Z,31.77
2019-02-06T07:23:06.124Z,31.68
2019-02-06T07:23:38.645Z,29.18
2019-02-06T07:24:11.138Z,29.80
2019-02-06T07:24:44.487Z,28.20
2019-02-06T07:25:17.686Z,29.63
2019-02-06T07:25:59.203Z,32.15
2019-02-06T07:26:42.257Z,35.78
2019-02-06T07:27:20.987Z,35.75
2019-02-06T07:27:55.443Z,38.08
2019-02-06T07:28:30.595Z,29.00
2019-02-06T07:29:08.928Z,34.43
2019-02-06T07:29:44.107Z,33.95
2019-02-06T07:30:24.511Z,30.43
2019-02-06T07:31:03.448Z,29.80
2019-02-06T07:31:43.314Z,34.88
2019-02-06T07:32:19.881Z,29.45
2019-02-06T07:32:54.530Z,30.77
2019-02-06T07:33:30.340Z,29.67
2019-02-06T07:34:04.781Z,29.23
2019-02-06T07:34:40.659Z,35.25
2019-02-06T07:35:17.214Z,30.05
2019-02-06T07:35:54.752Z,32.53
2019-02-06T07:36:30.026Z,35.98
2019-02-06T07:37:06.312Z,35.05
2019-02-06T07:37:38.782Z,31.75
2019-02-06T07:38:23.961Z,32.53
2019-02-06T07:38:49.460Z,26.93
2019-02-06T07:39:28.200Z,37.30
2019-02-06T07:40:01.211Z,35.45
2019-02-06T07:40:38.467Z,35.28
2019-02-06T07:41:11.743Z,32.55
2019-02-06T07:41:44.213Z,41.15
2019-02-06T07:42:27.720Z,37.10
2019-02-06T07:43:10.566Z,30.72
2019-02-06T07:43:43.417Z,34.45
2019-02-06T07:44:16.974Z,31.65
2019-02-06T07:44:51.414Z,35.38
2019-02-06T07:45:28.927Z,33.40
2019-02-06T07:46:02.759Z,34.25
2019-02-06T07:46:35.240Z,37.88
2019-02-06T07:47:09.860Z,36.65
2019-02-06T07:47:45.904Z,35.98
2019-02-06T07:48:19.721Z,32.45
2019-02-06T07:48:52.225Z,35.45
2019-02-06T07:49:27.285Z,36.40
2019-02-06T07:50:04.915Z,35.03
2019-02-06T07:50:40.675Z,35.58
2019-02-06T07:51:13.876Z,34.83
2019-02-06T07:51:51.911Z,38.48
2019-02-06T07:52:25.518Z,33.58
2019-02-06T07:53:01.303Z,39.13
2019-02-06T07:53:39.234Z,40.03
2019-02-06T07:54:13.314Z,34.33
2019-02-06T07:54:49.325Z,36.60
2019-02-06T07:55:26.116Z,34.43
2019-02-06T07:56:00.664Z,33.45
2019-02-06T07:56:33.426Z,39.48
2019-02-06T07:57:06.343Z,33.18
2019-02-06T07:57:42.534Z,38.08
2019-02-06T07:58:18.631Z,36.68
2019-02-06T07:58:51.534Z,40.92
2019-02-06T07:59:24.018Z,39.63
2019-02-06T07:59:57.244Z,35.95
2019-02-06T08:00:35.309Z,38.15
2019-02-06T08:01:07.845Z,40.85
2019-02-06T08:01:41.146Z,32.95
2019-02-06T08:02:14.073Z,40.05
2019-02-06T08:02:46.774Z,35.60
2019-02-06T08:03:19.618Z,36.98
2019-02-06T08:03:52.375Z,40.28
2019-02-06T08:04:24.883Z,41.25
2019-02-06T08:04:57.433Z,42.03
2019-02-06T08:05:30.583Z,35.78
2019-02-06T08:06:03.267Z,38.53
2019-02-06T08:06:35.794Z,38.92
2019-02-06T08:07:08.576Z,33.45
2019-02-06T08:07:41.068Z,41.75
2019-02-06T08:08:17.556Z,36.90
2019-02-06T08:09:00.278Z,36.60
2019-02-06T08:09:38.036Z,39.35
2019-02-06T08:10:16.659Z,38.00
2019-02-06T08:10:50.116Z,34.63